This is the latest recevied weather packets stored in our database for station/object HP1MRA-15. If no packets are shown the sender has not sent any weather packets the latest 1 day(s).
| Time | Temp. | Humidity | Pressure | Rain* | Wind** | Luminosity | Snow |
|---|---|---|---|---|---|---|---|
| 1778114482 | 30° C | 80% | 1001.8 hPa | 0 mm | - | - | - |
| 1778113882 | 30° C | 80% | 1001.9 hPa | 0 mm | - | - | - |
| 1778113282 | 30.56° C | 79% | 1001.8 hPa | 0 mm | - | - | - |
| 1778111782 | 30.56° C | 79% | 1001.7 hPa | 0 mm | - | - | - |
| 1778111181 | 30.56° C | 77% | 1001.5 hPa | 0 mm | - | - | - |
| 1778109080 | 30.56° C | 75% | 1001.6 hPa | 0 mm | - | - | - |
| 1778108477 | 31.11° C | 75% | 1001.5 hPa | 0 mm | - | - | - |
| 1778107835 | 31.11° C | 76% | 1001.4 hPa | 0 mm | - | - | - |
| 1778106935 | 30.56° C | 77% | 1001.2 hPa | 0 mm | - | - | - |
| 1778106335 | 31.11° C | 77% | 1001.2 hPa | 0 mm | - | - | - |
| 1778105734 | 31.67° C | 76% | 1001.1 hPa | 0 mm | - | - | - |
| 1778105134 | 31.67° C | 75% | 1001 hPa | 0 mm | - | - | - |
| 1778104534 | 31.67° C | 74% | 1000.8 hPa | 0 mm | - | - | - |
| 1778103034 | 32.22° C | 73% | 1000.9 hPa | 0 mm | - | - | - |
| 1778102734 | 32.22° C | 71% | 1001.1 hPa | 0 mm | - | - | - |
| 1778102434 | 32.78° C | 75% | 1001.1 hPa | 0 mm | - | - | - |
| 1778101534 | 32.78° C | 74% | 1001 hPa | 0 mm | - | - | - |
| 1778100934 | 32.22° C | 75% | 1000.9 hPa | 0 mm | - | - | - |
| 1778100034 | 32.78° C | 69% | 1000.8 hPa | 0 mm | - | - | - |
| 1778098534 | - | - | 1000.8 hPa | 0 mm | - | - | - |
| 1778097933 | 32.22° C | 69% | 1000.7 hPa | 0 mm | - | - | - |
| 1778097333 | 32.22° C | 69% | 1001.1 hPa | 0 mm | - | - | - |
| 1778096433 | 32.78° C | 66% | 1001.1 hPa | 0 mm | - | - | - |
| 1778095533 | 36.67° C | 59% | 1001.1 hPa | 0 mm | - | - | - |
| 1778094633 | 35° C | 59% | 1001.3 hPa | 0 mm | - | - | - |
* Rain latest hour (hover to see other rain measurements)
** Current wind speed in m/s (hover to see current wind gust speed)